»·PEaware :: N792JS KTEX-KTUS

N792JS :: KTEX-KTUS

FLIGHT INFORMATION

Flight Status: Arrived
Operator: Privately registered:
United States
More flights under this callsign
Pilot: Ian G. (41107)
Aircraft: Cessna 525C Citation CJ4
(C25C)
More flights by this aircraft type
Origin: KTEX Telluride Regl
United States
Destination: KTUS Tucson Intl
United States
More flights between these airports :: More routes between these airports
Route: CEZ GUP SJN SSO ZONNA1
File this flight plan on PilotEdge
Remarks: RMK / SIMBRIEF
Altitude:
(Current/Filed)
41,000ft
Speed:
(Current/Filed)
476kts
Departed: 03-Jan-23 06:09 PM
Arrived: 03-Jan-23 07:25 PM
Distance/Time
Traveled:
380nm/1:16
Distance/Time
To Go:
Arrived

Flight Plot

Page will automatically refresh every two minutes.

Flight plan parsing failed; only flown route is shown


Map Options




Map Legend


Flown Route
Filed Route
Departure Airport
Arrival Airport
Navaid (VOR, NDB)
Fix

Horizontal Profiles

Position Reports

Time Latitude Longitude Heading Altitude Ground
Speed
03-Jan-23 18:00 37.953970 -107.901661 16 9051ft 0kts
03-Jan-23 18:01 37.953970 -107.901661 16 9051ft 0kts
03-Jan-23 18:02 37.953970 -107.901661 16 9051ft 0kts
03-Jan-23 18:03 37.953970 -107.901661 16 9051ft 0kts
03-Jan-23 18:04 37.953970 -107.901661 16 9051ft 0kts
03-Jan-23 18:05 37.953970 -107.901661 16 9051ft 0kts
03-Jan-23 18:06 37.953833 -107.901524 154 9054ft 6kts
03-Jan-23 18:07 37.952394 -107.901849 284 9041ft 0kts
03-Jan-23 18:08 37.954698 -107.913246 282 9171ft 150kts
03-Jan-23 18:09 37.955594 -107.988442 232 13078ft 275kts
03-Jan-23 18:10 37.891443 -108.048413 226 17546ft 297kts
03-Jan-23 18:11 37.825142 -108.116979 223 21723ft 318kts
03-Jan-23 18:12 37.752509 -108.191731 222 23099ft 346kts
03-Jan-23 18:13 37.679670 -108.266501 223 26230ft 343kts
03-Jan-23 18:14 37.604246 -108.343593 224 29100ft 354kts
03-Jan-23 18:15 37.528509 -108.420925 225 31795ft 349kts
03-Jan-23 18:16 37.452954 -108.497646 226 34196ft 348kts
03-Jan-23 18:17 37.371362 -108.563038 202 36182ft 363kts
03-Jan-23 18:18 37.270196 -108.581687 194 38178ft 366kts
03-Jan-23 18:19 37.169523 -108.598402 194 39770ft 362kts
03-Jan-23 18:20 37.070031 -108.614902 195 41005ft 364kts
03-Jan-23 18:21 36.964661 -108.632145 194 41077ft 397kts
03-Jan-23 18:22 36.851677 -108.650727 193 41068ft 419kts
03-Jan-23 18:23 36.733562 -108.670170 194 41063ft 434kts
03-Jan-23 18:24 36.612535 -108.689726 194 41054ft 444kts
03-Jan-23 18:25 36.489127 -108.709934 193 41053ft 449kts
03-Jan-23 18:26 36.364707 -108.730167 194 41044ft 453kts
03-Jan-23 18:27 36.239863 -108.750310 194 41034ft 449kts
03-Jan-23 18:28 36.117265 -108.770135 194 41022ft 442kts
03-Jan-23 18:29 35.996154 -108.789625 194 41021ft 437kts
03-Jan-23 18:30 35.875720 -108.808907 194 41031ft 437kts
03-Jan-23 18:31 35.755210 -108.828278 194 41045ft 435kts
03-Jan-23 18:32 35.635050 -108.847367 195 41055ft 435kts
03-Jan-23 18:33 35.515011 -108.866405 195 41049ft 434kts
03-Jan-23 18:34 35.397206 -108.893171 199 41040ft 431kts
03-Jan-23 18:35 35.279839 -108.923741 199 41031ft 429kts
03-Jan-23 18:36 35.163059 -108.953968 199 41035ft 430kts
03-Jan-23 18:37 35.046244 -108.984082 200 41042ft 430kts
03-Jan-23 18:38 34.929211 -109.014313 200 41042ft 428kts
03-Jan-23 18:39 34.813294 -109.044051 200 41048ft 428kts
03-Jan-23 18:40 34.696106 -109.074100 200 41053ft 428kts
03-Jan-23 18:41 34.579618 -109.103887 200 41058ft 427kts
03-Jan-23 18:42 34.463541 -109.133473 200 41063ft 425kts
03-Jan-23 18:43 34.344135 -109.148057 192 41099ft 435kts
03-Jan-23 18:44 34.223373 -109.154772 191 41128ft 436kts
03-Jan-23 18:45 34.102501 -109.161692 191 41136ft 433kts
03-Jan-23 18:46 33.982023 -109.168504 192 41127ft 433kts
03-Jan-23 18:47 33.861716 -109.175284 192 41120ft 433kts
03-Jan-23 18:48 33.740849 -109.182038 192 41120ft 435kts
03-Jan-23 18:49 33.620217 -109.189074 192 40894ft 440kts
03-Jan-23 18:50 33.501257 -109.195474 194 39225ft 412kts
03-Jan-23 18:51 33.389986 -109.201584 195 37357ft 392kts
03-Jan-23 18:52 33.282059 -109.207575 195 35511ft 383kts
03-Jan-23 18:53 33.176074 -109.213540 196 33746ft 381kts
03-Jan-23 18:54 33.070175 -109.219317 196 31836ft 377kts
03-Jan-23 18:55 32.967037 -109.224969 196 30045ft 365kts
03-Jan-23 18:56 32.866848 -109.230495 195 28043ft 355kts
03-Jan-23 18:57 32.768967 -109.235865 195 26180ft 349kts
03-Jan-23 18:58 32.671791 -109.241201 194 24426ft 348kts
03-Jan-23 18:59 32.578231 -109.246414 194 24167ft 352kts
03-Jan-23 19:00 32.474045 -109.251994 192 24182ft 390kts
03-Jan-23 19:01 32.362469 -109.258088 192 24171ft 409kts
03-Jan-23 19:02 32.271436 -109.311111 247 24147ft 354kts
03-Jan-23 19:03 32.254781 -109.406816 267 24155ft 341kts
03-Jan-23 19:04 32.243356 -109.518409 268 24156ft 342kts
03-Jan-23 19:05 32.231978 -109.629960 267 24181ft 344kts
03-Jan-23 19:06 32.220222 -109.742969 266 23063ft 337kts
03-Jan-23 19:07 32.209674 -109.844952 267 21228ft 311kts
03-Jan-23 19:08 32.199079 -109.949772 267 19726ft 329kts
03-Jan-23 19:09 32.187938 -110.057073 267 18118ft 317kts
03-Jan-23 19:10 32.177674 -110.155669 267 16691ft 295kts
03-Jan-23 19:11 32.167630 -110.251668 266 15124ft 297kts
03-Jan-23 19:12 32.160182 -110.347938 276 14001ft 284kts
03-Jan-23 19:13 32.165317 -110.437605 276 13966ft 275kts
03-Jan-23 19:14 32.170564 -110.531241 275 13974ft 283kts
03-Jan-23 19:15 32.175680 -110.621602 275 12531ft 262kts
03-Jan-23 19:16 32.180283 -110.706132 275 11036ft 259kts
03-Jan-23 19:17 32.184764 -110.790364 275 9540ft 256kts
03-Jan-23 19:18 32.197114 -110.868002 310 8993ft 238kts
03-Jan-23 19:19 32.243984 -110.929001 305 7478ft 266kts
03-Jan-23 19:20 32.232445 -110.996903 220 5835ft 241kts
03-Jan-23 19:21 32.181395 -111.009251 154 4360ft 182kts
03-Jan-23 19:22 32.145255 -110.973432 132 3344ft 163kts
03-Jan-23 19:23 32.115926 -110.939117 136 2597ft 60kts
03-Jan-23 19:24 32.117025 -110.938035 314 2595ft 27kts
03-Jan-23 19:25 32.122362 -110.943135 69 2581ft 13kts

Navigation Log

Ident Type
Flight plan parsing failed, navigation log unavailable